Shawville, PA (16873)

4:35 AM EST on January 31, 2015 (GMT -0500)
Woodland | Change Station
CLOSE
Current Station
Personal Weather Station
Location: Woodland, PA
Elevation: 1765 ft
Nearby Weather Stations

Elev 1765 ft 41.01 °N, 78.35 °W | Updated 2 minutes ago

Overcast
Overcast
6.3 °F
Feels Like -4 °F
N
5.8
Wind Variable Wind from NW

Today
High -- | Low -- °F
--% Chance of Precip.
Yesterday
High -- | Low -- °F
Precip. -- in
7:25 AM 5:28 PM
Waxing Gibbous, 88% visible
Pressure 30.34 in
Visibility 10.0 miles
Clouds Overcast 2200 ft
Windchill -4 °F
Dew Point 2 °F
Humidity 81%
Rainfall 0.00 in
Snow Depth Not available.
UV 0 out of 12
Pollen .10 out of 12
Air Quality Not available.
Flu Activity Not available.
METAR KFIG 310854Z AUTO 30007KT 10SM OVC022 M13/M17 A3025 RMK AO2 UPE0756SNB0756E12 SLP274 P0000 60000 T11331172 58001

More Conditions Fewer Conditions

Pressure 30.34 in
Visibility 10.0 miles
Clouds Overcast 2200 ft
Windchill -4 °F
Dew Point 2 °F
Humidity 81%
Rainfall 0.00 in
Snow Depth Not available.
UV 0 out of 12
Pollen .10 out of 12
Air Quality Not available.
Flu Activity Not available.
METAR KFIG 310854Z AUTO 30007KT 10SM OVC022 M13/M17 A3025 RMK AO2 UPE0756SNB0756E12 SLP274 P0000 60000 T11331172 58001

More Conditions Fewer Conditions

10-Day Weather Forecast

Almanac

Astronomy

Jan. 31, 2015 Rise Set
Actual Time
Civil Twilight
Nautical Twilight
Astronomical Twilight
Moon
Length of Visible Light
Length of Day
Tomorrow will be .
, % of the Moon is Illuminated

Today's Extremes

State Highs State Lows

Community

WunderPhotos

Upload Photos

1,792,021 photos uploaded!

WunderBlogs® & News

Nearby

Air Quality

  Air Quality AQ Index Pollutant
Not available.

Snow Depth

Station Depth Elevation

Earthquake Activity

City Distance Mag. Time & Date
Minimum magnitude displayed is 2.5.

Coastal Water Temperatures

Place Temperature

Nearby Weather Stations